createdAt,value
2023-04-30T00:00:57.024Z,99121.56
2023-04-30T00:02:09.416Z,99120.72
2023-04-30T00:03:19.577Z,99123.47
2023-04-30T00:04:31.896Z,99124.94
2023-04-30T00:05:41.622Z,99114.53
2023-04-30T00:06:47.460Z,99122.41
2023-04-30T00:07:51.864Z,99123.47
2023-04-30T00:08:58.781Z,99124.47
2023-04-30T00:10:06.549Z,99120.72
2023-04-30T00:11:11.077Z,99118.75
2023-04-30T00:12:17.168Z,99118.88
2023-04-30T00:13:21.978Z,99122.78
2023-04-30T00:14:25.770Z,99116.22
2023-04-30T00:15:29.480Z,99126.03
2023-04-30T00:16:33.495Z,99130.66
2023-04-30T00:17:37.486Z,99129.47
2023-04-30T00:18:41.809Z,99124.88
2023-04-30T00:19:46.137Z,99122.31
2023-04-30T00:20:52.063Z,99127.41
2023-04-30T00:21:58.027Z,99118.69
2023-04-30T00:23:01.856Z,99121.47
2023-04-30T00:24:12.162Z,99118.63
2023-04-30T00:25:16.972Z,99119.59
2023-04-30T00:26:21.019Z,99128.72
2023-04-30T00:27:25.124Z,99122.69
2023-04-30T00:28:29.061Z,99124.78
2023-04-30T00:29:33.077Z,99122.72
2023-04-30T00:30:36.855Z,99118.22
2023-04-30T00:31:41.263Z,99116.69
2023-04-30T00:32:46.283Z,99121.03
2023-04-30T00:33:50.034Z,99122.97
2023-04-30T00:34:53.905Z,99123.38
2023-04-30T00:35:57.819Z,99129.69
2023-04-30T00:37:01.681Z,99124.28
2023-04-30T00:38:09.446Z,99122.91
2023-04-30T00:39:13.467Z,99122.06
2023-04-30T00:40:17.910Z,99128.31
2023-04-30T00:41:23.543Z,99125.25
2023-04-30T00:42:27.438Z,99125.75
2023-04-30T00:43:31.712Z,99127.72
2023-04-30T00:44:35.945Z,99131.94
2023-04-30T00:45:39.555Z,99131.63
2023-04-30T00:46:43.584Z,99129.91
2023-04-30T00:47:47.696Z,99135.53
2023-04-30T00:48:51.627Z,99132.09
2023-04-30T00:49:55.851Z,99131.25
2023-04-30T00:51:01.682Z,99140.78
2023-04-30T00:52:11.844Z,99138.03
2023-04-30T00:53:15.918Z,99139.56
2023-04-30T00:54:21.644Z,99131.72
2023-04-30T00:55:25.901Z,99131.31
2023-04-30T00:56:31.931Z,99130.19
2023-04-30T00:57:38.177Z,99133.34
2023-04-30T00:58:42.278Z,99135.41
2023-04-30T00:59:46.776Z,99139.19
2023-04-30T01:00:51.074Z,99138.06
2023-04-30T01:01:55.263Z,99137.72
2023-04-30T01:02:59.908Z,99138.19
2023-04-30T01:04:04.198Z,99141.13
2023-04-30T01:05:11.471Z,99140.25
2023-04-30T01:06:15.158Z,99134.56
2023-04-30T01:07:20.005Z,99134.56
2023-04-30T01:08:26.721Z,99135.03
2023-04-30T01:09:31.968Z,99133.06
2023-04-30T01:10:54.526Z,99139.38
2023-04-30T01:12:40.171Z,99134.38
2023-04-30T01:14:11.910Z,99131.72
2023-04-30T01:15:41.086Z,99134.25
2023-04-30T01:17:12.644Z,99128.91
2023-04-30T01:18:27.743Z,99132.28
2023-04-30T01:19:46.460Z,99128.31
2023-04-30T01:20:59.460Z,99127.16
2023-04-30T01:22:10.931Z,99127.66
2023-04-30T01:23:59.331Z,99132.84
2023-04-30T01:25:37.040Z,99141.97
2023-04-30T01:26:54.861Z,99135.66
2023-04-30T01:28:09.715Z,99132.16
2023-04-30T01:29:21.105Z,99141.03
2023-04-30T01:30:31.951Z,99137.50
2023-04-30T01:31:35.868Z,99141.88
2023-04-30T01:32:39.716Z,99130.03
2023-04-30T01:33:43.451Z,99136.69
2023-04-30T01:34:47.635Z,99140.69
2023-04-30T01:36:21.449Z,99140.81
2023-04-30T01:37:42.837Z,99136.94
2023-04-30T01:39:14.956Z,99137.38
2023-04-30T01:40:43.266Z,99139.22
2023-04-30T01:42:17.082Z,99140.06
2023-04-30T01:43:44.581Z,99140.69
2023-04-30T01:45:37.796Z,99148.56
2023-04-30T01:46:46.928Z,99149.28
2023-04-30T01:48:27.359Z,99144.84
2023-04-30T01:49:58.329Z,99144.25
2023-04-30T01:51:48.878Z,99148.75
2023-04-30T01:52:59.933Z,99143.41
2023-04-30T01:54:26.382Z,99144.25
2023-04-30T01:55:50.139Z,99146.91
2023-04-30T01:57:08.134Z,99147.28
2023-04-30T01:58:15.654Z,99151.06
2023-04-30T01:59:21.862Z,99148.25
